Sierra Nevada Aquatic Research Lab (SNARL) Reserve, California Weather observations

Data are for 10 minute period ending at time listed.
 Day   Time   Solar   Ave.   Ave.  Ave.  Vector  Max.   Baro.   Total    
  of    of     Rad.   Air    Rel.  Wind   Wind   Wind  Press.  Precip.   
Year   Day            Temp.  Hum.  Speed  Dir.   Gust                    
2017   (PST)  Kw/m2    F      %     mph   deg.    mph    mb.     in.     
-------------------------------------------------------------------------
 144   19:00   0.00   59.9    23    9.9   235    20.3   778.7    0.00 
 144   19:10   0.00   59.4    24    8.8   227    16.5   778.7    0.00 
 144   19:20   0.00   59.3    23    9.1   236    17.5   778.6    0.00 
 144   19:30   0.00   59.5    22    9.5   234    17.8   778.5    0.00 
 144   19:40   0.00   59.6    22   11.7   226    24.7   778.5    0.00 
 144   19:50   0.00   59.5    22   12.6   218    23.9   778.5    0.00 
 144   20:00   0.00   59.3    22   13.4   218    25.1   778.5    0.00 
 144   20:10   0.00   59.4    20   16.1   222    24.8   778.5    0.00 
 144   20:20   0.00   59.2    20   15.8   218    26.8   778.5    0.00 
 144   20:30   0.00   59.1    19   16.5   219    24.6   778.5    0.00 
 144   20:40   0.00   59.1    20   14.8   220    23.0   778.5    0.00 
 144   20:50   0.00   59.0    20   15.8   222    26.1   778.5    0.00 
 144   21:00   0.00   59.1    20   16.5   217    25.9   778.5    0.00 
 144   21:10   0.00   59.3    20   16.2   221    28.0   778.5    0.00 
 144   21:20   0.00   59.4    20   13.2   234    21.6   778.6    0.00 
 144   21:30   0.00   59.1    21   17.8   219    30.9   778.5    0.00 
 144   21:40   0.00   59.1    20   18.4   212    29.2   778.4    0.00 
 144   21:50   0.00   59.0    21   20.6   208    35.8   778.3    0.00 
 144   22:00   0.00   59.3    20   23.0   202    36.6   778.1    0.00 
 144   22:10   0.00   59.6    19   21.3   208    34.3   778.0    0.00 
 144   22:20   0.00   59.4    19   21.5   206    33.8   778.0    0.00 
 144   22:30   0.00   59.6    19   23.5   202    41.6   777.9    0.00 
 144   22:40   0.00   59.6    19   24.4   205    38.5   777.8    0.00 
 144   22:50   0.00   59.5    18   26.8   207    41.0   777.8    0.00 
 144   23:00   0.00   59.5    17   22.5   207    37.5   777.8    0.00 
 144   23:10   0.00   59.2    17   22.9   209    35.4   777.7    0.00 
 144   23:20   0.00   59.1    18   23.7   210    41.1   777.6    0.00 
 144   23:30   0.00   58.9    18   22.7   204    34.2   777.6    0.00 
 144   23:40   0.00   59.0    16   22.9   204    36.0   777.6    0.00 
 144   23:50   0.00   58.9    15   21.6   208    38.3   777.6    0.00 
 145    0:00   0.00   58.7    14   21.4   205    38.6   777.5    0.00 
 145    0:10   0.00   58.8    14   22.3   203    32.7   777.4    0.00 
 145    0:20   0.00   58.8    14   22.2   206    34.4   777.2    0.00 
 145    0:30   0.00   58.9    13   23.3   206    39.3   777.1    0.00 
 145    0:40   0.00   58.9    14   22.9   207    34.9   777.1    0.00 
 145    0:50   0.00   58.9    14   22.5   211    34.0   777.0    0.00 
 145    1:00   0.00   58.8    13   20.4   210    36.5   776.9    0.00 
 145    1:10   0.00   58.7    13   21.4   210    31.0   776.8    0.00 
 145    1:20   0.00   58.6    12   24.3   211    37.4   776.7    0.00 
 145    1:30   0.00   58.4    13   21.1   217    32.4   776.6    0.00 
 145    1:40   0.00   58.5    13   23.9   208    33.3   776.4    0.00 
 145    1:50   0.00   58.4    14   21.9   206    30.5   776.3    0.00 
 145    2:00   0.00   58.5    14   22.1   211    36.0   776.3    0.00 
 145    2:10   0.00   58.5    14   22.2   213    33.4   776.3    0.00 
 145    2:20   0.00   58.7    14   18.8   214    29.3   776.3    0.00 
 145    2:30   0.00   58.9    14   18.2   215    27.8   776.3    0.00 
 145    2:40   0.00   58.6    13   19.8   215    35.4   776.3    0.00 
 145    2:50   0.00   58.5    13   17.2   216    31.1   776.2    0.00 
 145    3:00   0.00   58.6    14   14.8   215    31.4   776.1    0.00 
 145    3:10   0.00   58.7    14   18.7   212    31.5   776.0    0.00 
 145    3:20   0.00   58.9    14   21.0   210    32.4   776.0    0.00 
 145    3:30   0.00   58.9    14   20.6   213    30.7   776.0    0.00 
 145    3:40   0.00   58.8    14   19.1   212    32.6   776.1    0.00 
 145    3:50   0.00   58.6    14   14.1   222    23.1   776.3    0.00 
 145    4:00   0.00   58.0    15   12.5   221    23.5   776.2    0.00 
 145    4:10   0.00   56.3    23    7.5   244    21.2   776.2    0.00 
 145    4:20   0.00   55.8    26   12.1   276    20.0   776.2    0.00 
 145    4:30   0.00   54.9    22   11.5   232    18.5   776.1    0.00 
 145    4:40   0.00   57.0    16   13.2   228    20.5   776.0    0.00 
 145    4:50   0.00   55.6    25   10.5   269    20.2   776.0    0.00 
 145    5:00   0.01   52.6    33   10.5   261    20.0   775.9    0.00 
 145    5:10   0.02   54.9    20   11.7   255    24.4   775.8    0.00 
 145    5:20   0.05   57.5    15   12.6   229    27.8   775.8    0.00 
 145    5:30   0.07   58.7    13   13.7   223    27.6   775.8    0.00 
 145    5:40   0.07   58.7    13   15.0   211    26.5   775.7    0.00 
 145    5:50   0.14   59.1    13   11.6   217    21.5   775.8    0.00 
 145    6:00   0.14   59.3    19    8.2   239    18.9   775.9    0.00 
 145    6:10   0.22   57.7    24    9.3   283    21.7   775.9    0.00 
 145    6:20   0.30   57.4    26   10.7   279    21.7   775.9    0.00 
 145    6:30   0.33   60.7    15   11.1   234    28.6   775.8    0.00 
 145    6:40   0.29   61.1    12   12.1   238    21.6   775.9    0.00 
 145    6:50   0.33   61.4    12   16.4   218    30.4   775.8    0.00 
 145    7:00   0.38   61.7    11   16.9   223    29.0   775.8    0.00 
 145    7:10   0.46   62.6    10   18.0   215    32.4   775.8    0.00 
 145    7:20   0.51   63.4    10   17.0   208    28.4   775.9    0.00 
 145    7:30   0.47   63.1    10   17.0   205    30.8   775.8    0.00 
 145    7:40   0.56   63.7    10   16.9   209    33.7   775.9    0.00 
 145    7:50   0.60   64.3     9   19.0   207    33.0   775.9    0.00 
 145    8:00   0.61   64.2     9   16.0   213    29.0   776.0    0.00 
 145    8:10   0.68   65.0     9   18.1   205    35.9   776.0    0.00 
 145    8:20   0.71   65.2     9   18.9   202    37.4   776.0    0.00 
 145    8:30   0.74   64.8     9   18.6   201    33.2   776.1    0.00 
 145    8:40   0.72   65.0     9   18.6   209    31.9   776.2    0.00 
 145    8:50   0.80   65.5     9   19.0   195    32.9   776.2    0.00 
 145    9:00   0.82   65.6     9   21.8   211    35.4   776.2    0.00 
 145    9:10   0.85   65.6     9   21.9   210    35.1   776.2    0.00 
 145    9:20   0.87   65.7     9   18.8   210    36.0   776.3    0.00 
 145    9:30   0.90   65.9     9   20.9   205    35.8   776.2    0.00 
 145    9:40   0.92   66.1     9   20.6   205    34.8   776.2    0.00 
 145    9:50   0.94   66.4     9   23.4   203    39.0   776.4    0.00 
 145   10:00   0.95   66.0    10   21.8   204    34.5   776.5    0.00 
 145   10:10   0.97   66.5    10   20.4   209    29.3   776.6    0.00 
 145   10:20   0.99   66.2    11   18.8   211    34.7   776.7    0.00 
 145   10:30   1.00   66.6    12   15.8   208    27.0   776.8    0.00 
 145   10:40   1.01   67.2    12   18.6   209    33.9   777.0    0.00 
 145   10:50   1.02   67.0    12   20.2   208    30.4   777.0    0.00 
 145   11:00   1.03   67.0    13   20.1   204    32.3   776.9    0.00 
 145   11:10   1.03   66.9    14   18.5   208    32.9   777.0    0.00 
 145   11:20   1.03   67.3    14   15.1   213    27.9   777.1    0.00 
 145   11:30   1.04   67.2    14   17.5   201    32.1   777.0    0.00 
 145   11:40   1.04   67.4    14   16.8   207    26.1   776.9    0.00 
 145   11:50   1.05   67.9    14   15.1   212    25.4   776.8    0.00 
 145   12:00   1.04   67.9    14   15.6   208    31.0   776.8    0.00 
 145   12:10   1.04   67.2    14   16.7   212    28.9   776.9    0.00 
 145   12:20   1.04   67.6    14   14.9   213    27.5   776.9    0.00 
 145   12:30   1.03   67.2    14   18.3   212    36.0   776.9    0.00 
 145   12:40   1.03   67.2    13   21.7   208    33.0   776.8    0.00 
 145   12:50   1.02   67.5    13   18.9   212    28.0   776.9    0.00 
 145   13:00   1.02   67.7    13   18.9   206    32.7   776.8    0.00 
 145   13:10   1.01   67.2    13   19.1   204    29.1   776.9    0.00 
 145   13:20   0.99   67.7    13   19.8   203    29.5   776.9    0.00 
 145   13:30   0.98   67.5    13   18.9   203    30.4   776.9    0.00 
 145   13:40   0.96   66.8    13   21.4   205    36.6   776.9    0.00 
 145   13:50   0.95   66.8    13   20.2   209    32.8   776.8    0.00 
 145   14:00   0.93   65.9    13   20.8   206    30.7   776.9    0.00 
 145   14:10   0.91   65.9    12   21.5   209    33.2   776.9    0.00 
 145   14:20   0.89   66.0    12   21.0   207    32.1   776.9    0.00 
 145   14:30   0.86   65.9    11   22.3   206    34.3   776.8    0.00 
 145   14:40   0.84   65.5    10   23.9   202    35.7   776.8    0.00 
 145   14:50   0.81   65.4    10   23.1   208    34.8   776.7    0.00 
 145   15:00   0.78   65.1    10   23.6   206    36.1   776.7    0.00 
 145   15:10   0.75   65.2    11   23.0   208    35.1   776.6    0.00 
 145   15:20   0.72   65.1    11   21.9   206    31.9   776.6    0.00 
 145   15:30   0.69   65.0    11   21.1   209    33.4   776.6    0.00 
 145   15:40   0.66   64.7    11   20.0   207    30.8   776.6    0.00 
 145   15:50   0.63   64.5    12   20.0   207    31.9   776.5    0.00 
 145   16:00   0.59   64.5    12   21.5   208    35.0   776.4    0.00 
 145   16:10   0.56   63.8    12   22.5   210    40.1   776.4    0.00 
 145   16:20   0.52   63.9    12   20.1   215    31.5   776.4    0.00 
 145   16:30   0.49   63.7    12   19.9   211    30.0   776.3    0.00 
 145   16:40   0.45   63.5    12   22.0   210    35.0   776.3    0.00 
 145   16:50   0.42   63.4    12   20.5   207    29.3   776.3    0.00 
 145   17:00   0.38   63.5    12   20.2   208    29.3   776.2    0.00 
 145   17:10   0.35   63.1    12   18.4   211    27.0   776.2    0.00 
 145   17:20   0.31   63.0    12   19.2   206    28.6   776.3    0.00 
 145   17:30   0.27   62.6    13   16.9   219    24.3   776.4    0.00 
 145   17:40   0.24   62.2    14   16.4   211    26.0   776.3    0.00 
 145   17:50   0.20   61.8    14   14.1   212    27.4   776.3    0.00 
 145   18:00   0.17   61.6    13   13.8   210    22.6   776.3    0.00 
 145   18:10   0.14   60.9    14   15.9   218    23.6   776.3    0.00 
 145   18:20   0.11   60.4    14   13.6   225    23.0   776.4    0.00 
 145   18:30   0.07   59.8    14   11.8   231    20.7   776.4    0.00 
 145   18:40   0.05   59.3    14   11.4   237    22.6   776.5    0.00 
 145   18:50   0.02   56.6    26    8.3   288    22.0   776.5    0.00 

Return to SNARL Reserve graphs page.


Western Regional Climate Center,wrcc@dri.edu